Time;durP1;ratioP1;P1;durP2;ratioP2;P2;SDS_P1;SDS_P2;PMS_P1;PMS_P2;Temp;Humidity;BMP_temperature;BMP_pressure;BME280_temperature;BME280_humidity;BME280_pressure;Samples;Min_cycle;Max_cycle;Signal;HPM_P1;HPM_P2
2022/07/20 00:00:11;;;;;;;7.72;4.25;;;;;;;16.72;70.91;100618.84;1739332;80;21054;-71
2022/07/20 00:02:38;;;;;;;4.95;4.10;;;;;;;16.71;70.94;100610.50;1754537;81;22324;-71
2022/07/20 00:05:05;;;;;;;5.58;3.98;;;;;;;16.70;71.00;100612.83;1718186;81;21029;-70
2022/07/20 00:07:33;;;;;;;6.33;4.10;;;;;;;16.68;71.07;100609.92;1750241;80;21508;-70
2022/07/20 00:12:45;;;;;;;6.40;3.72;;;;;;;16.65;71.04;100607.08;1753700;81;20994;-69
2022/07/20 00:15:12;;;;;;;5.65;3.92;;;;;;;16.63;71.13;100612.23;1754736;80;21843;-67
2022/07/20 00:17:38;;;;;;;5.40;3.80;;;;;;;16.61;71.12;100604.39;1745923;81;20917;-69
2022/07/20 00:20:07;;;;;;;5.97;3.80;;;;;;;16.59;71.19;100609.86;1753133;81;21072;-69
2022/07/20 00:22:35;;;;;;;6.25;3.95;;;;;;;16.55;71.27;100605.84;1755455;80;21041;-70
2022/07/20 00:25:01;;;;;;;6.33;3.80;;;;;;;16.53;71.29;100599.83;1735910;81;20975;-69
2022/07/20 00:27:28;;;;;;;7.80;3.95;;;;;;;16.51;71.49;100604.48;1747952;81;21923;-70
2022/07/20 00:29:55;;;;;;;6.37;4.33;;;;;;;16.48;71.71;100603.94;1755875;80;21037;-71
2022/07/20 00:32:21;;;;;;;6.90;4.33;;;;;;;16.46;71.92;100604.09;1754460;80;21032;-68
2022/07/20 00:34:48;;;;;;;5.83;4.03;;;;;;;16.46;72.05;100608.09;1755101;80;21006;-70
2022/07/20 00:37:14;;;;;;;4.53;3.77;;;;;;;16.44;72.17;100602.58;1755597;80;21016;-71
2022/07/20 00:39:41;;;;;;;6.17;4.20;;;;;;;16.41;72.30;100594.41;1755682;80;21949;-70
2022/07/20 00:42:08;;;;;;;6.70;4.12;;;;;;;16.41;72.51;100597.07;1750116;81;20983;-70
2022/07/20 00:44:35;;;;;;;8.43;4.20;;;;;;;16.40;72.53;100595.38;1758255;80;21035;-70
2022/07/20 00:47:02;;;;;;;5.42;3.72;;;;;;;16.38;72.42;100591.19;1758930;80;21490;-71
2022/07/20 00:49:29;;;;;;;4.70;3.60;;;;;;;16.36;72.30;100587.84;1758771;79;20945;-71
2022/07/20 00:51:55;;;;;;;6.17;3.80;;;;;;;16.31;72.23;100589.16;1758394;81;21932;-70
2022/07/20 00:54:21;;;;;;;5.67;3.77;;;;;;;16.27;72.13;100592.27;1725661;81;21008;-70
2022/07/20 00:56:48;;;;;;;5.25;3.75;;;;;;;16.21;72.10;100589.73;1755482;80;21071;-70
2022/07/20 00:59:15;;;;;;;5.12;3.60;;;;;;;16.19;72.19;100590.86;1746557;79;21486;-70
2022/07/20 01:01:41;;;;;;;4.47;3.80;;;;;;;16.15;72.14;100591.67;1759237;79;21034;-70
2022/07/20 01:04:08;;;;;;;5.80;3.55;;;;;;;16.14;72.20;100587.33;1759487;79;21902;-69
2022/07/20 01:06:36;;;;;;;5.80;4.17;;;;;;;16.12;72.17;100587.98;1759099;79;21677;-72
2022/07/20 01:09:03;;;;;;;7.03;4.08;;;;;;;16.14;72.21;100583.83;1738135;81;21015;-70
2022/07/20 01:11:29;;;;;;;6.17;4.28;;;;;;;16.15;72.39;100585.01;1757912;81;21367;-69
2022/07/20 01:14:08;;;;;;;6.00;4.10;;;;;;;16.14;72.49;100588.66;1758043;80;21000;-70
2022/07/20 01:16:37;;;;;;;9.23;4.67;;;;;;;16.14;72.85;100588.66;1756621;81;21848;-69
2022/07/20 01:19:05;;;;;;;6.85;4.55;;;;;;;16.11;73.25;100594.77;1736993;81;21011;-71
2022/07/20 01:21:39;;;;;;;6.95;4.35;;;;;;;16.10;73.44;100589.11;1759117;79;21412;-69
2022/07/20 01:24:02;;;;;;;6.70;4.30;;;;;;;16.11;73.38;100591.61;1757376;80;22271;-69
2022/07/20 01:26:29;;;;;;;5.95;4.50;;;;;;;16.10;73.28;100590.44;1758738;81;20979;-70
2022/07/20 01:28:55;;;;;;;7.33;4.40;;;;;;;16.07;73.27;100590.75;1758096;79;22631;-72
2022/07/20 01:31:22;;;;;;;5.45;4.40;;;;;;;16.06;73.29;100596.58;1757041;80;21500;-70
2022/07/20 01:33:48;;;;;;;6.42;4.60;;;;;;;16.05;73.29;100594.91;1759049;80;20996;-70
2022/07/20 01:36:14;;;;;;;7.03;4.60;;;;;;;16.03;73.30;100588.89;1750552;81;21076;-69
2022/07/20 01:38:41;;;;;;;6.85;4.25;;;;;;;16.00;73.33;100590.02;1758409;81;20999;-69
2022/07/20 01:41:07;;;;;;;8.75;4.78;;;;;;;15.99;73.40;100590.17;1758924;79;22572;-69
2022/07/20 01:43:36;;;;;;;7.28;4.80;;;;;;;15.97;73.45;100591.66;1766322;80;20961;-69
2022/07/20 01:46:02;;;;;;;6.72;4.67;;;;;;;15.94;73.52;100590.64;1725152;81;21530;-71
2022/07/20 01:48:31;;;;;;;7.55;4.60;;;;;;;15.92;73.55;100591.29;1706568;83;21500;-70
2022/07/20 01:50:57;;;;;;;7.30;4.70;;;;;;;15.92;73.46;100593.09;1747532;80;21079;-70
2022/07/20 01:53:24;;;;;;;7.97;4.87;;;;;;;15.89;73.39;100596.90;1771112;81;21920;-71
2022/07/20 01:55:52;;;;;;;9.80;4.80;;;;;;;15.85;73.32;100590.21;1754029;79;21012;-70
2022/07/20 01:58:19;;;;;;;6.50;4.95;;;;;;;15.81;73.35;100588.81;1770625;80;20937;-70
2022/07/20 02:00:46;;;;;;;8.53;4.85;;;;;;;15.79;73.33;100592.13;1766751;81;21107;-72
2022/07/20 02:03:13;;;;;;;7.15;4.92;;;;;;;15.76;73.36;100588.94;1755832;81;21000;-70
2022/07/20 02:05:39;;;;;;;6.58;4.95;;;;;;;15.72;73.36;100587.89;1732501;81;22328;-71
2022/07/20 02:08:06;;;;;;;6.92;4.83;;;;;;;15.71;73.31;100591.54;1765780;81;21008;-71
2022/07/20 02:10:32;;;;;;;7.50;5.00;;;;;;;15.68;73.30;100586.52;1764390;81;21029;-71
2022/07/20 02:12:59;;;;;;;6.87;4.50;;;;;;;15.66;73.35;100591.66;1767857;81;20949;-70
2022/07/20 02:18:12;;;;;;;10.82;4.97;;;;;;;15.60;73.39;100588.22;1765237;81;21753;-70
2022/07/20 02:20:40;;;;;;;6.40;5.00;;;;;;;15.57;73.43;100589.86;1745109;81;20953;-69
2022/07/20 02:23:09;;;;;;;7.33;5.10;;;;;;;15.58;73.46;100588.38;1762284;80;20949;-71
2022/07/20 02:25:36;;;;;;;10.80;5.50;;;;;;;15.58;73.53;100587.54;1754037;79;21404;-70
2022/07/20 02:28:05;;;;;;;8.05;5.80;;;;;;;15.57;73.63;100589.86;1759041;81;21044;-68
2022/07/20 02:30:32;;;;;;;7.80;5.35;;;;;;;15.58;73.65;100583.55;1760423;79;21846;-69
2022/07/20 02:33:01;;;;;;;10.30;5.70;;;;;;;15.58;73.74;100590.20;1759137;81;20973;-70
2022/07/20 02:35:28;;;;;;;10.25;5.87;;;;;;;15.55;73.74;100588.68;1766304;79;20976;-70
2022/07/20 02:37:54;;;;;;;8.80;5.50;;;;;;;15.54;73.80;100585.67;1751445;80;21414;-69
2022/07/20 02:40:22;;;;;;;7.20;6.03;;;;;;;15.52;73.95;100588.12;1753248;81;20936;-71
2022/07/20 02:42:49;;;;;;;9.75;6.03;;;;;;;15.52;74.05;100593.45;1762327;81;21922;-70
2022/07/20 02:45:16;;;;;;;8.18;5.50;;;;;;;15.50;74.12;100591.43;1758973;80;20967;-70
2022/07/20 02:47:44;;;;;;;6.22;5.40;;;;;;;15.50;74.16;100595.42;1758723;79;21024;-70
2022/07/20 02:50:11;;;;;;;8.68;5.40;;;;;;;15.49;74.20;100599.08;1758725;81;21422;-70
2022/07/20 02:52:41;;;;;;;9.13;5.03;;;;;;;15.49;74.20;100603.07;1758346;80;20939;-71
2022/07/20 02:55:09;;;;;;;8.40;4.85;;;;;;;15.50;74.27;100600.75;1759002;80;21984;-69
2022/07/20 02:57:36;;;;;;;7.28;5.47;;;;;;;15.49;74.29;100594.59;1757795;79;21035;-70
2022/07/20 03:00:06;;;;;;;7.60;5.45;;;;;;;15.53;74.30;100599.11;1758406;81;20994;-70
2022/07/20 03:02:33;;;;;;;7.08;5.60;;;;;;;15.56;74.32;100601.50;1749417;80;21760;-70
2022/07/20 03:05:00;;;;;;;7.22;6.00;;;;;;;15.56;74.35;100597.51;1759261;79;21017;-70
2022/07/20 03:07:28;;;;;;;6.92;5.72;;;;;;;15.57;74.45;100593.86;1758176;80;21954;-70
2022/07/20 03:09:54;;;;;;;9.70;5.87;;;;;;;15.59;74.57;100590.55;1757427;79;20987;-70
2022/07/20 03:12:21;;;;;;;8.30;5.65;;;;;;;15.60;74.74;100595.75;1758713;81;20939;-71
2022/07/20 03:14:48;;;;;;;6.67;5.00;;;;;;;15.63;74.95;100591.94;1759072;79;20941;-72
2022/07/20 03:17:16;;;;;;;6.70;5.22;;;;;;;15.65;75.20;100593.98;1758665;79;21050;-70
2022/07/20 03:19:45;;;;;;;7.42;5.40;;;;;;;15.68;75.39;100594.52;1758066;81;22346;-71
2022/07/20 03:22:12;;;;;;;7.47;5.90;;;;;;;15.72;75.47;100592.38;1756711;79;21002;-71
2022/07/20 03:24:39;;;;;;;7.65;6.28;;;;;;;15.76;75.53;100600.43;1758911;80;21038;-71
2022/07/20 03:27:06;;;;;;;8.00;6.50;;;;;;;15.81;75.59;100603.47;1758198;79;20999;-72
2022/07/20 03:29:33;;;;;;;6.62;6.00;;;;;;;15.85;75.61;100601.36;1752860;79;21011;-71
2022/07/20 03:32:00;;;;;;;7.37;5.90;;;;;;;15.90;75.58;100604.39;1758193;80;22547;-71
2022/07/20 03:34:26;;;;;;;8.25;6.15;;;;;;;15.95;75.59;100607.46;1755341;80;21119;-70
2022/07/20 03:36:53;;;;;;;8.05;6.37;;;;;;;16.00;75.64;100615.33;1750891;79;21002;-70
2022/07/20 03:39:19;;;;;;;7.17;6.28;;;;;;;16.04;75.78;100607.89;1759088;81;21005;-70
2022/07/20 03:41:45;;;;;;;7.47;6.60;;;;;;;16.08;75.97;100605.75;1758368;79;21000;-70
2022/07/20 03:44:13;;;;;;;7.03;6.33;;;;;;;16.13;76.06;100610.14;1758805;80;22436;-69
2022/07/20 03:46:39;;;;;;;7.75;6.15;;;;;;;16.17;76.21;100611.00;1757949;81;21411;-69
2022/07/20 03:49:06;;;;;;;6.83;6.12;;;;;;;16.21;76.30;100610.19;1758220;81;21050;-71
2022/07/20 03:51:33;;;;;;;7.12;6.00;;;;;;;16.27;76.39;100603.77;1724582;81;21027;-72
2022/07/20 03:54:00;;;;;;;6.75;5.53;;;;;;;16.34;76.52;100602.67;1754620;81;21459;-69
2022/07/20 03:56:27;;;;;;;7.35;6.15;;;;;;;16.40;76.71;100599.37;1757924;80;22336;-70
2022/07/20 03:58:54;;;;;;;6.65;5.70;;;;;;;16.45;76.97;100598.42;1758568;79;20907;-70
2022/07/20 04:01:21;;;;;;;7.55;6.53;;;;;;;16.51;77.19;100589.82;1752718;80;21125;-70
2022/07/20 04:03:48;;;;;;;7.35;6.65;;;;;;;16.59;77.34;100597.02;1757709;79;21039;-71
2022/07/20 04:06:15;;;;;;;8.43;7.15;;;;;;;16.66;77.40;100594.08;1758873;80;21046;-71
2022/07/20 04:08:41;;;;;;;8.25;7.45;;;;;;;16.73;77.49;100592.50;1758318;81;21839;-70
2022/07/20 04:11:08;;;;;;;9.18;6.95;;;;;;;16.81;77.56;100594.40;1757984;81;20943;-71
2022/07/20 04:13:34;;;;;;;7.17;6.47;;;;;;;16.89;77.73;100593.13;1758468;79;20976;-71
2022/07/20 04:16:00;;;;;;;7.62;6.60;;;;;;;16.98;77.89;100592.64;1758504;80;21030;-71
2022/07/20 04:18:27;;;;;;;8.33;6.37;;;;;;;17.05;78.06;100583.86;1758939;80;20983;-71
2022/07/20 04:20:53;;;;;;;10.50;7.20;;;;;;;17.15;78.29;100583.24;1757661;79;21905;-71
2022/07/20 04:23:19;;;;;;;7.50;6.65;;;;;;;17.26;78.43;100583.95;1758257;79;21466;-72
2022/07/20 04:25:46;;;;;;;8.75;6.80;;;;;;;17.38;78.65;100578.19;1782944;79;20984;-72
2022/07/20 04:28:13;;;;;;;9.40;7.08;;;;;;;17.50;78.77;100581.91;1734197;79;21035;-71
2022/07/20 04:30:39;;;;;;;7.65;6.50;;;;;;;17.61;78.79;100580.27;1758070;80;21016;-72
2022/07/20 04:33:07;;;;;;;9.40;6.85;;;;;;;17.71;78.90;100575.66;1757845;80;21994;-71
2022/07/20 04:35:34;;;;;;;7.53;6.83;;;;;;;17.84;79.05;100571.16;1757765;80;21016;-72
2022/07/20 04:38:01;;;;;;;6.67;5.90;;;;;;;17.95;79.07;100581.06;1757885;79;21052;-71
2022/07/20 04:40:28;;;;;;;7.28;5.20;;;;;;;18.06;79.11;100579.91;1757828;81;21128;-69
2022/07/20 04:42:55;;;;;;;7.05;5.05;;;;;;;18.17;79.08;100570.73;1762235;79;20964;-70
2022/07/20 04:45:22;;;;;;;7.85;5.00;;;;;;;18.27;78.88;100569.55;1764123;79;22329;-72
2022/07/20 04:47:48;;;;;;;5.87;5.08;;;;;;;18.38;78.71;100572.90;1751832;81;20924;-71
2022/07/20 04:50:15;;;;;;;5.35;4.70;;;;;;;18.45;78.33;100577.92;1749020;81;21026;-71
2022/07/20 04:52:41;;;;;;;6.75;4.53;;;;;;;18.49;77.86;100580.58;1761562;81;21424;-73
2022/07/20 04:55:09;;;;;;;6.62;4.87;;;;;;;18.54;77.53;100585.77;1760633;80;20960;-72
2022/07/20 04:57:36;;;;;;;6.50;4.80;;;;;;;18.59;77.39;100575.39;1762248;81;21790;-72
2022/07/20 05:00:05;;;;;;;6.60;4.60;;;;;;;18.68;77.30;100570.06;1770439;81;21095;-72
2022/07/20 05:02:32;;;;;;;5.53;3.80;;;;;;;18.79;77.13;100567.86;1758120;79;21028;-71
2022/07/20 05:04:59;;;;;;;5.30;4.30;;;;;;;18.85;76.54;100572.55;1759190;81;21050;-71
2022/07/20 05:07:26;;;;;;;5.17;4.00;;;;;;;18.92;76.26;100563.84;1761263;81;21399;-70
2022/07/20 05:09:53;;;;;;;5.17;4.20;;;;;;;18.99;75.96;100568.82;1763556;81;22612;-70
2022/07/20 05:12:20;;;;;;;7.75;3.77;;;;;;;19.08;75.83;100564.61;1770111;79;20929;-71
2022/07/20 05:14:47;;;;;;;6.50;3.60;;;;;;;19.18;75.26;100555.55;1764025;81;21395;-70
2022/07/20 05:17:14;;;;;;;4.10;3.60;;;;;;;19.26;74.77;100552.33;1766328;81;20997;-72
2022/07/20 05:19:42;;;;;;;10.25;3.60;;;;;;;19.38;74.59;100552.27;1765229;81;21088;-70
2022/07/20 05:22:10;;;;;;;5.45;3.98;;;;;;;19.52;74.34;100553.39;1752780;79;22002;-70
2022/07/20 05:24:37;;;;;;;3.27;2.98;;;;;;;19.65;73.87;100560.38;1764306;81;21023;-70
2022/07/20 05:27:03;;;;;;;7.33;3.50;;;;;;;19.71;72.81;100557.00;1713969;83;21186;-70
2022/07/20 05:29:30;;;;;;;5.03;3.40;;;;;;;19.76;72.27;100556.45;1765406;81;20945;-69
2022/07/20 05:31:58;;;;;;;3.90;3.10;;;;;;;19.82;72.20;100553.08;1737844;79;22015;-70
2022/07/20 05:34:24;;;;;;;5.30;3.00;;;;;;;19.94;71.94;100549.48;1749448;81;21789;-72
2022/07/20 05:36:51;;;;;;;3.92;3.52;;;;;;;20.05;71.51;100552.25;1742737;81;20995;-72
2022/07/20 05:39:18;;;;;;;5.03;3.35;;;;;;;20.14;70.98;100545.81;1755239;81;20950;-72
2022/07/20 05:41:47;;;;;;;3.77;3.15;;;;;;;20.20;70.58;100549.13;1761489;81;21015;-72
2022/07/20 05:44:13;;;;;;;4.72;3.67;;;;;;;20.20;70.38;100546.44;1756494;79;21011;-71
2022/07/20 05:46:41;;;;;;;4.90;3.60;;;;;;;20.17;70.26;100546.78;1759354;79;21940;-70
2022/07/20 05:49:08;;;;;;;6.30;3.20;;;;;;;20.18;70.23;100545.80;1758227;79;21119;-71
2022/07/20 05:51:35;;;;;;;5.90;3.33;;;;;;;20.20;70.06;100547.78;1756000;81;21003;-71
2022/07/20 05:54:02;;;;;;;4.60;3.40;;;;;;;20.22;69.92;100545.24;1757911;79;20983;-72
2022/07/20 05:56:30;;;;;;;4.25;3.00;;;;;;;20.28;69.71;100541.02;1757997;80;20960;-73
2022/07/20 05:58:57;;;;;;;3.85;3.05;;;;;;;20.34;69.08;100543.47;1759433;79;22582;-72
2022/07/20 06:01:23;;;;;;;3.42;2.75;;;;;;;20.38;68.61;100532.20;1756784;80;21066;-72
2022/07/20 06:03:50;;;;;;;3.95;2.67;;;;;;;20.45;68.22;100534.50;1717847;81;20947;-72
2022/07/20 06:06:18;;;;;;;3.22;2.47;;;;;;;20.58;67.60;100524.50;1758474;81;21115;-72
2022/07/20 06:08:46;;;;;;;4.00;2.90;;;;;;;20.69;66.83;100520.53;1758255;80;21486;-72
2022/07/20 06:11:13;;;;;;;2.90;2.65;;;;;;;20.78;66.09;100516.74;1763422;79;21794;-72
2022/07/20 06:13:39;;;;;;;3.33;2.47;;;;;;;20.83;66.15;100517.00;1757950;80;20949;-71
2022/07/20 06:16:06;;;;;;;3.58;2.60;;;;;;;20.85;65.33;100519.85;1755813;79;21012;-70
2022/07/20 06:18:34;;;;;;;3.27;2.37;;;;;;;20.86;64.86;100522.03;1731183;81;21106;-71
2022/07/20 06:21:00;;;;;;;3.17;2.40;;;;;;;20.89;64.59;100511.42;1754791;80;21024;-72
2022/07/20 06:23:27;;;;;;;2.35;2.15;;;;;;;20.95;64.22;100508.83;1758036;79;22406;-71
2022/07/20 06:25:53;;;;;;;6.95;2.40;;;;;;;21.05;63.85;100506.70;1754951;81;20992;-71
2022/07/20 06:28:20;;;;;;;4.30;2.50;;;;;;;21.16;63.21;100501.36;1725851;81;20976;-70
2022/07/20 06:30:46;;;;;;;3.80;2.05;;;;;;;21.29;62.80;100498.85;1758679;79;21036;-71
2022/07/20 06:33:14;;;;;;;3.85;2.10;;;;;;;21.42;62.44;100491.45;1762665;80;21447;-72
2022/07/20 06:35:41;;;;;;;3.05;2.00;;;;;;;21.53;61.82;100488.29;1753627;79;22106;-71
2022/07/20 06:38:08;;;;;;;2.80;2.27;;;;;;;21.61;61.24;100490.83;1757092;79;20995;-70
2022/07/20 06:40:34;;;;;;;2.77;2.10;;;;;;;21.66;61.07;100491.11;1752119;80;21005;-73
2022/07/20 06:43:01;;;;;;;3.87;2.10;;;;;;;21.74;60.64;100493.36;1756104;80;21011;-72
2022/07/20 06:45:28;;;;;;;3.00;2.33;;;;;;;21.74;60.44;100487.47;1757764;80;21371;-71
2022/07/20 06:47:55;;;;;;;2.87;2.10;;;;;;;21.75;60.46;100485.61;1752654;80;21853;-72
2022/07/20 06:50:22;;;;;;;3.40;2.10;;;;;;;21.82;60.41;100483.31;1722161;81;21166;-70
2022/07/20 06:52:48;;;;;;;3.27;2.37;;;;;;;21.95;60.14;100481.25;1751870;80;20936;-70
2022/07/20 06:55:15;;;;;;;3.35;2.00;;;;;;;22.08;59.94;100486.77;1753540;80;21008;-70
2022/07/20 06:57:43;;;;;;;2.77;2.00;;;;;;;22.15;58.85;100485.48;1747856;80;21050;-71
2022/07/20 07:00:13;;;;;;;3.30;1.90;;;;;;;22.15;58.13;100476.90;1756634;80;21040;-68
2022/07/20 07:02:41;;;;;;;2.80;1.90;;;;;;;22.08;57.48;100474.66;1754569;80;21421;-71
2022/07/20 07:05:09;;;;;;;5.12;1.70;;;;;;;22.03;57.52;100474.39;1752137;79;21054;-72
2022/07/20 07:07:36;;;;;;;3.98;1.90;;;;;;;21.97;57.00;100477.33;1769569;80;20988;-71
2022/07/20 07:10:04;;;;;;;3.02;2.00;;;;;;;22.03;57.28;100476.25;1754593;81;21110;-70
2022/07/20 07:12:31;;;;;;;1.98;1.75;;;;;;;22.14;57.00;100475.23;1733568;81;21904;-73
2022/07/20 07:14:58;;;;;;;2.85;1.77;;;;;;;22.28;56.98;100467.58;1750711;80;20931;-74
2022/07/20 07:17:25;;;;;;;3.27;1.87;;;;;;;22.42;56.64;100463.66;1755306;81;21498;-73
2022/07/20 07:19:53;;;;;;;3.25;1.90;;;;;;;22.55;56.19;100462.38;1754295;80;21506;-72
2022/07/20 07:22:21;;;;;;;2.98;1.95;;;;;;;22.59;55.29;100462.32;1762004;80;21466;-73
2022/07/20 07:24:47;;;;;;;2.85;1.80;;;;;;;22.54;55.34;100463.41;1766192;80;21990;-74
2022/07/20 07:27:16;;;;;;;2.50;1.60;;;;;;;22.55;55.14;100458.34;1759834;80;21027;-75
2022/07/20 07:29:43;;;;;;;5.95;1.90;;;;;;;22.62;54.21;100453.01;1754376;80;21074;-78
2022/07/20 07:32:09;;;;;;;3.40;2.20;;;;;;;22.71;54.10;100448.61;1763093;78;21055;-75
2022/07/20 07:34:37;;;;;;;2.75;1.72;;;;;;;22.74;54.11;100439.30;1755727;80;20983;-74
2022/07/20 07:37:03;;;;;;;4.00;1.72;;;;;;;22.83;53.84;100432.71;1762582;80;22574;-74
2022/07/20 07:39:30;;;;;;;5.62;2.17;;;;;;;22.96;53.69;100433.30;1732618;81;20984;-75
2022/07/20 07:41:58;;;;;;;2.80;2.17;;;;;;;23.13;53.73;100437.31;1753488;80;21003;-73
2022/07/20 07:44:24;;;;;;;5.45;1.50;;;;;;;23.22;53.67;100431.23;1756954;80;21018;-75
2022/07/20 07:46:54;;;;;;;2.00;1.40;;;;;;;23.25;52.54;100434.34;1750718;81;20945;-73
2022/07/20 07:49:21;;;;;;;1.60;1.32;;;;;;;23.28;51.07;100432.61;1764257;80;22970;-74
2022/07/20 07:51:48;;;;;;;1.92;1.50;;;;;;;23.32;50.97;100433.02;1758711;80;21364;-74
2022/07/20 07:54:15;;;;;;;2.80;1.40;;;;;;;23.41;50.15;100431.28;1758174;80;20991;-77
2022/07/20 07:56:42;;;;;;;2.17;1.52;;;;;;;23.51;50.85;100429.53;1755825;80;20987;-74
2022/07/20 07:59:09;;;;;;;2.72;1.50;;;;;;;23.60;50.57;100424.81;1724939;81;21715;-74
2022/07/20 08:01:35;;;;;;;2.85;1.32;;;;;;;23.58;50.31;100426.86;1752519;80;21908;-78
2022/07/20 08:04:03;;;;;;;5.33;1.60;;;;;;;23.51;50.06;100419.27;1748457;80;20995;-78
2022/07/20 08:06:33;;;;;;;2.58;1.70;;;;;;;23.42;49.79;100416.77;1737825;80;21012;-75
2022/07/20 08:08:59;;;;;;;3.70;1.52;;;;;;;23.49;50.93;100410.56;1741792;80;21032;-77
2022/07/20 08:11:27;;;;;;;14.10;1.90;;;;;;;23.64;50.56;100402.64;1749870;80;20988;-74
2022/07/20 08:13:54;;;;;;;2.80;1.52;;;;;;;23.81;49.66;100403.04;1755512;80;21829;-72
2022/07/20 08:16:21;;;;;;;2.45;1.50;;;;;;;23.89;49.43;100406.05;1752593;80;21366;-72
2022/07/20 08:18:49;;;;;;;2.50;1.60;;;;;;;23.85;49.09;100406.17;1754289;80;20987;-74
2022/07/20 08:21:16;;;;;;;3.08;1.72;;;;;;;23.80;48.48;100395.98;1743856;81;21025;-73
2022/07/20 08:23:43;;;;;;;1.57;1.40;;;;;;;23.83;48.56;100405.52;1745343;80;21023;-74
2022/07/20 08:26:10;;;;;;;4.12;1.62;;;;;;;23.89;48.67;100392.56;1753482;81;22105;-74
2022/07/20 08:28:40;;;;;;;2.67;1.47;;;;;;;24.01;49.07;100390.06;1751556;81;20983;-74
2022/07/20 08:31:07;;;;;;;2.08;1.32;;;;;;;24.14;47.48;100380.10;1741206;81;21406;-72
2022/07/20 08:33:33;;;;;;;3.17;1.60;;;;;;;24.22;47.88;100373.14;1753155;80;21176;-73
2022/07/20 08:36:00;;;;;;;3.08;1.50;;;;;;;24.34;48.12;100375.21;1751875;81;21015;-75
2022/07/20 08:38:27;;;;;;;1.15;1.00;;;;;;;24.47;47.29;100375.16;1749835;81;22222;-74
2022/07/20 08:40:53;;;;;;;3.40;1.30;;;;;;;24.61;46.18;100371.39;1748418;81;21396;-74
2022/07/20 08:43:20;;;;;;;2.75;1.40;;;;;;;24.63;46.17;100372.53;1726724;81;21111;-73
2022/07/20 08:45:48;;;;;;;1.60;1.40;;;;;;;24.60;46.47;100372.93;1728173;80;21002;-74
2022/07/20 08:48:18;;;;;;;6.28;1.57;;;;;;;24.53;46.85;100362.17;1732794;82;21065;-77
2022/07/20 08:50:45;;;;;;;2.50;1.75;;;;;;;24.57;47.51;100359.86;1727932;80;21894;-76
2022/07/20 08:53:12;;;;;;;1.62;1.30;;;;;;;24.67;46.98;100364.29;1680363;82;21070;-74
2022/07/20 08:55:38;;;;;;;2.95;1.27;;;;;;;24.53;46.85;100349.50;1750409;80;21049;-77
2022/07/20 08:58:05;;;;;;;2.95;1.22;;;;;;;24.39;47.10;100355.97;1751785;81;21774;-75
2022/07/20 09:00:32;;;;;;;1.35;1.22;;;;;;;24.41;47.34;100349.83;1757441;80;21059;-77
2022/07/20 09:03:03;;;;;;;1.57;1.20;;;;;;;24.51;46.59;100343.98;1706484;82;20997;-77
2022/07/20 09:05:33;;;;;;;2.12;1.40;;;;;;;24.66;46.16;100355.88;1708386;82;20949;-76
2022/07/20 09:08:00;;;;;;;1.98;1.52;;;;;;;24.69;46.19;100342.77;1759588;80;21495;-74
2022/07/20 09:10:30;;;;;;;4.85;1.40;;;;;;;24.74;46.56;100341.62;1738616;80;20984;-74
2022/07/20 09:13:00;;;;;;;1.37;1.15;;;;;;;24.79;46.30;100337.73;1738380;81;21046;-72
2022/07/20 09:15:47;;;;;;;1.77;1.32;;;;;;;24.67;45.17;100329.18;1719155;82;20908;-74
2022/07/20 09:18:26;;;;;;;4.12;1.30;;;;;;;24.63;46.11;100331.49;1717376;81;21148;-75
2022/07/20 09:21:04;;;;;;;1.55;1.35;;;;;;;24.73;45.84;100323.75;1750106;80;21058;-74
2022/07/20 09:23:43;;;;;;;2.22;1.32;;;;;;;24.87;45.24;100319.63;1752577;80;21003;-74
2022/07/20 09:26:14;;;;;;;1.30;1.20;;;;;;;24.90;44.62;100314.63;1719002;82;21547;-74
2022/07/20 09:28:57;;;;;;;4.45;1.40;;;;;;;24.90;45.53;100304.31;1753351;80;21425;-73
2022/07/20 09:31:30;;;;;;;1.67;1.25;;;;;;;24.99;45.36;100307.89;1756194;80;21033;-73
2022/07/20 09:34:15;;;;;;;3.17;1.40;;;;;;;25.07;44.88;100309.02;1761573;80;21003;-74
2022/07/20 09:36:45;;;;;;;1.85;1.32;;;;;;;25.13;44.72;100300.58;1697801;83;21035;-75
2022/07/20 09:39:20;;;;;;;1.40;1.20;;;;;;;25.31;44.73;100302.53;1751063;80;21042;-75
2022/07/20 09:41:56;;;;;;;1.50;1.22;;;;;;;25.46;44.28;100290.02;1738171;80;22445;-73
2022/07/20 09:44:30;;;;;;;2.25;1.30;;;;;;;25.56;44.19;100284.41;1725638;82;21437;-73
2022/07/20 09:46:56;;;;;;;2.02;1.37;;;;;;;25.65;42.84;100283.60;1728997;81;21060;-74
2022/07/20 09:49:33;;;;;;;2.33;1.20;;;;;;;25.71;43.08;100283.28;1728213;81;21064;-74
2022/07/20 09:52:02;;;;;;;1.90;1.57;;;;;;;25.80;43.48;100273.83;1765912;79;21123;-74
2022/07/20 09:54:29;;;;;;;3.17;1.50;;;;;;;25.84;43.10;100268.26;1735864;81;21849;-74
2022/07/20 09:56:56;;;;;;;2.60;1.42;;;;;;;25.88;43.76;100276.25;1759852;80;21075;-73
2022/07/20 09:59:23;;;;;;;2.37;1.60;;;;;;;25.96;42.84;100268.66;1759604;81;21064;-74
2022/07/20 10:01:53;;;;;;;1.92;1.50;;;;;;;26.15;42.75;100258.66;1759228;80;20961;-74
2022/07/20 10:04:20;;;;;;;4.67;1.60;;;;;;;26.31;42.57;100249.08;1758313;81;20992;-74
2022/07/20 10:06:52;;;;;;;2.12;1.42;;;;;;;26.40;42.42;100252.33;1758195;81;20913;-74
2022/07/20 10:09:20;;;;;;;2.52;1.70;;;;;;;26.49;42.22;100243.66;1758023;81;20944;-74
2022/07/20 10:11:48;;;;;;;1.98;1.72;;;;;;;26.55;42.01;100248.70;1727016;81;20944;-74
2022/07/20 10:14:19;;;;;;;2.00;1.35;;;;;;;26.62;41.15;100240.46;1757922;81;21466;-74
2022/07/20 10:16:50;;;;;;;1.40;1.30;;;;;;;26.71;40.66;100225.53;1757738;80;21027;-74
2022/07/20 10:19:17;;;;;;;2.08;1.30;;;;;;;26.77;41.46;100228.16;1759030;81;21815;-74
2022/07/20 10:21:49;;;;;;;2.50;1.42;;;;;;;26.92;42.60;100233.13;1770957;79;20964;-74
2022/07/20 10:24:30;;;;;;;2.67;1.60;;;;;;;27.04;40.24;100222.36;1798443;79;20992;-74
2022/07/20 10:27:25;;;;;;;1.70;1.40;;;;;;;26.87;40.04;100219.99;1792239;79;21031;-74
2022/07/20 10:29:55;;;;;;;2.72;1.65;;;;;;;26.72;41.17;100213.11;1759527;80;20961;-73
2022/07/20 10:32:28;;;;;;;2.55;1.47;;;;;;;26.85;41.23;100227.00;1758959;80;21832;-73
2022/07/20 10:35:00;;;;;;;1.95;1.55;;;;;;;27.01;40.33;100210.05;1757982;81;20999;-73
2022/07/20 10:37:43;;;;;;;4.15;2.20;;;;;;;27.21;40.19;100189.41;1724646;81;21111;-74
2022/07/20 10:40:20;;;;;;;3.50;1.70;;;;;;;27.44;39.60;100181.81;1734722;82;21445;-74
2022/07/20 10:43:13;;;;;;;4.05;1.67;;;;;;;27.50;39.44;100178.67;1781003;80;20944;-74
2022/07/20 10:45:40;;;;;;;5.30;1.77;;;;;;;27.54;39.96;100179.86;1737509;80;21925;-73
2022/07/20 10:48:17;;;;;;;3.47;1.80;;;;;;;27.67;38.87;100175.56;1716666;82;20948;-74
2022/07/20 10:50:50;;;;;;;2.85;1.52;;;;;;;27.72;38.92;100182.47;1720749;82;21000;-73
2022/07/20 10:53:26;;;;;;;2.72;1.50;;;;;;;27.79;39.03;100174.17;1718158;81;21026;-72
2022/07/20 10:56:02;;;;;;;3.65;1.60;;;;;;;27.86;38.37;100156.69;1715690;83;21101;-73
2022/07/20 10:58:32;;;;;;;3.20;1.60;;;;;;;27.83;38.80;100157.18;1721462;81;21901;-75
2022/07/20 11:01:12;;;;;;;2.85;1.60;;;;;;;27.94;40.00;100150.89;1734926;81;20985;-77
2022/07/20 11:03:41;;;;;;;3.17;1.80;;;;;;;28.29;40.27;100145.07;1716562;82;21474;-75
2022/07/20 11:06:27;;;;;;;2.08;1.70;;;;;;;28.71;38.96;100144.98;1718493;82;20968;-73
2022/07/20 11:08:57;;;;;;;5.87;2.00;;;;;;;28.87;38.01;100144.72;1718179;82;21040;-74
2022/07/20 11:11:32;;;;;;;5.67;1.50;;;;;;;28.74;36.94;100138.23;1718955;81;21834;-72
2022/07/20 11:14:01;;;;;;;5.53;2.02;;;;;;;28.44;37.55;100139.36;1699933;83;21053;-72
2022/07/20 11:16:28;;;;;;;6.70;1.80;;;;;;;28.37;37.88;100115.59;1688228;85;21119;-72
2022/07/20 11:18:57;;;;;;;7.15;2.30;;;;;;;28.50;38.58;100125.34;1687366;84;21493;-72
2022/07/20 11:21:35;;;;;;;4.15;2.00;;;;;;;28.48;37.80;100137.00;1688154;83;21560;-72
2022/07/20 11:24:02;;;;;;;3.55;2.00;;;;;;;28.32;37.58;100120.12;1683246;85;22542;-73
2022/07/20 11:26:28;;;;;;;3.15;2.00;;;;;;;28.33;38.18;100110.91;1685398;83;21066;-73
2022/07/20 11:28:57;;;;;;;4.87;2.40;;;;;;;28.41;38.24;100116.77;1688825;85;21063;-74
2022/07/20 11:31:29;;;;;;;5.00;2.30;;;;;;;28.52;36.95;100115.05;1684986;83;21102;-73
2022/07/20 11:33:58;;;;;;;2.62;2.20;;;;;;;28.55;37.75;100086.55;1682888;85;21630;-74